createdAt,value
2022-08-02T00:01:55.618Z,27.19
2022-08-02T00:03:57.612Z,27.16
2022-08-02T00:05:59.237Z,27.17
2022-08-02T00:08:02.158Z,27.18
2022-08-02T00:10:05.300Z,27.14
2022-08-02T00:12:08.463Z,27.11
2022-08-02T00:14:10.377Z,27.10
2022-08-02T00:16:12.238Z,27.10
2022-08-02T00:18:18.775Z,27.08
2022-08-02T00:20:20.508Z,27.08
2022-08-02T00:22:22.094Z,27.07
2022-08-02T00:24:30.630Z,26.98
2022-08-02T00:26:32.770Z,26.85
2022-08-02T00:28:34.490Z,26.81
2022-08-02T00:30:36.098Z,26.71
2022-08-02T00:32:37.732Z,26.61
2022-08-02T00:34:39.305Z,26.48
2022-08-02T00:36:40.980Z,26.48
2022-08-02T00:38:42.794Z,26.48
2022-08-02T00:40:48.943Z,26.40
2022-08-02T00:43:01.533Z,26.33
2022-08-02T00:45:03.863Z,26.34
2022-08-02T00:47:05.819Z,26.40
2022-08-02T00:49:07.635Z,26.48
2022-08-02T00:51:09.253Z,26.51
2022-08-02T00:53:10.828Z,26.53
2022-08-02T00:55:12.628Z,26.56
2022-08-02T00:57:20.407Z,26.62
2022-08-02T00:59:22.006Z,26.65
2022-08-02T01:01:23.755Z,26.62
2022-08-02T01:03:25.383Z,26.69
2022-08-02T01:05:27.187Z,26.70
2022-08-02T01:07:28.826Z,26.59
2022-08-02T01:09:30.415Z,26.60
2022-08-02T01:11:33.219Z,26.57
2022-08-02T01:13:36.850Z,26.54
2022-08-02T01:15:43.509Z,26.62
2022-08-02T01:17:50.599Z,26.66
2022-08-02T01:20:02.532Z,26.69
2022-08-02T01:22:58.050Z,26.78
2022-08-02T01:25:25.405Z,26.77
2022-08-02T01:27:39.963Z,26.80
2022-08-02T01:29:49.207Z,26.78
2022-08-02T01:31:57.197Z,26.80
2022-08-02T01:34:04.345Z,26.76
2022-08-02T01:36:11.789Z,26.77
2022-08-02T01:38:17.640Z,26.72
2022-08-02T01:40:23.888Z,26.70
2022-08-02T01:42:27.104Z,26.68
2022-08-02T01:44:33.026Z,26.62
2022-08-02T01:46:40.855Z,26.58
2022-08-02T01:48:45.309Z,26.55
2022-08-02T01:50:49.151Z,26.46
2022-08-02T01:52:53.703Z,26.39
2022-08-02T01:55:01.414Z,26.36
2022-08-02T01:57:06.424Z,26.34
2022-08-02T01:59:11.324Z,26.34
2022-08-02T02:01:18.351Z,26.28
2022-08-02T02:03:25.134Z,26.26
2022-08-02T02:05:29.455Z,26.11
2022-08-02T02:07:34.853Z,26.00
2022-08-02T02:09:50.929Z,25.89
2022-08-02T02:12:12.171Z,25.79
2022-08-02T02:14:17.693Z,25.85
2022-08-02T02:16:19.815Z,25.85
2022-08-02T02:18:25.485Z,25.84
2022-08-02T02:20:27.192Z,25.80
2022-08-02T02:22:29.131Z,25.52
2022-08-02T02:24:31.088Z,25.40
2022-08-02T02:26:35.905Z,25.41
2022-08-02T02:28:40.892Z,25.49
2022-08-02T02:30:48.621Z,25.48
2022-08-02T02:32:53.002Z,25.44
2022-08-02T02:34:57.789Z,25.36
2022-08-02T02:37:02.403Z,25.36
2022-08-02T02:39:11.582Z,25.37
2022-08-02T02:41:17.422Z,25.37
2022-08-02T02:43:21.480Z,25.41
2022-08-02T02:45:24.839Z,25.49
2022-08-02T02:47:40.889Z,25.52
2022-08-02T02:49:45.082Z,25.55
2022-08-02T02:51:49.193Z,25.61
2022-08-02T02:54:31.015Z,25.56
2022-08-02T02:56:15.340Z,25.51
2022-08-02T02:58:17.476Z,25.40
2022-08-02T03:00:19.131Z,25.35
2022-08-02T03:02:21.187Z,25.38
2022-08-02T03:04:24.908Z,25.36
2022-08-02T03:06:26.627Z,25.35
2022-08-02T03:08:30.145Z,25.41
2022-08-02T03:10:32.835Z,25.41
2022-08-02T03:12:35.744Z,25.43
2022-08-02T03:14:42.017Z,25.39
2022-08-02T03:16:44.688Z,25.39
2022-08-02T03:18:46.288Z,25.31
2022-08-02T03:20:47.961Z,25.21
2022-08-02T03:22:50.119Z,25.13
2022-08-02T03:24:53.090Z,25.07
2022-08-02T03:26:57.039Z,25.03
2022-08-02T03:28:58.635Z,25.05
2022-08-02T03:31:00.753Z,25.06
2022-08-02T03:33:02.383Z,25.10
2022-08-02T03:35:06.754Z,25.13
2022-08-02T03:37:08.923Z,25.14
2022-08-02T03:39:12.258Z,25.20
2022-08-02T03:41:18.683Z,25.22
2022-08-02T03:43:21.223Z,25.24
2022-08-02T03:45:23.983Z,25.30
2022-08-02T03:47:27.667Z,25.32
2022-08-02T03:49:29.648Z,25.31
2022-08-02T03:51:31.607Z,25.29
2022-08-02T03:53:33.671Z,25.32
2022-08-02T03:55:35.820Z,25.26
2022-08-02T03:57:39.540Z,25.11
2022-08-02T03:59:41.764Z,25.11
2022-08-02T04:01:43.362Z,25.15
2022-08-02T04:03:44.925Z,25.17
2022-08-02T04:06:03.691Z,25.28
2022-08-02T04:08:36.923Z,25.46
2022-08-02T04:10:27.750Z,25.48
2022-08-02T04:12:29.319Z,25.66
2022-08-02T04:14:36.140Z,25.90
2022-08-02T04:16:43.178Z,25.85
2022-08-02T04:18:49.902Z,25.74
2022-08-02T04:20:53.036Z,25.70
2022-08-02T04:22:58.438Z,25.79
2022-08-02T04:25:04.793Z,26.00
2022-08-02T04:27:49.208Z,26.28
2022-08-02T04:29:33.966Z,26.43
2022-08-02T04:31:36.163Z,26.53
2022-08-02T04:33:38.360Z,26.63
2022-08-02T04:35:40.093Z,26.58
2022-08-02T04:38:08.670Z,26.47
2022-08-02T04:40:08.232Z,26.30
2022-08-02T04:42:10.351Z,26.22
2022-08-02T04:44:12.750Z,26.14
2022-08-02T04:46:15.698Z,26.06
2022-08-02T04:48:17.263Z,25.96
2022-08-02T04:50:18.919Z,25.85
2022-08-02T04:52:20.565Z,25.83
2022-08-02T04:54:22.153Z,25.80
2022-08-02T04:56:23.694Z,25.75
2022-08-02T04:58:39.920Z,25.72
2022-08-02T05:00:42.307Z,25.68
2022-08-02T05:02:45.201Z,25.66
2022-08-02T05:04:46.765Z,25.61
2022-08-02T05:06:48.304Z,25.57
2022-08-02T05:08:52.972Z,25.52
2022-08-02T05:10:55.045Z,25.48
2022-08-02T05:12:56.729Z,25.48
2022-08-02T05:14:58.381Z,25.49
2022-08-02T05:16:59.976Z,25.52
2022-08-02T05:19:03.568Z,25.55
2022-08-02T05:21:05.211Z,25.55
2022-08-02T05:23:06.984Z,25.57
2022-08-02T05:25:09.804Z,25.62
2022-08-02T05:27:17.117Z,25.68
2022-08-02T05:29:23.286Z,25.92
2022-08-02T05:31:25.066Z,25.90
2022-08-02T05:33:27.008Z,25.85
2022-08-02T05:35:30.056Z,25.94
2022-08-02T05:37:32.287Z,25.97
2022-08-02T05:39:34.875Z,25.98
2022-08-02T05:41:38.845Z,25.94
2022-08-02T05:43:40.442Z,25.94
2022-08-02T05:45:42.205Z,25.92
2022-08-02T05:47:44.750Z,25.74
2022-08-02T05:49:46.329Z,25.75
2022-08-02T05:51:57.069Z,25.67
2022-08-02T05:54:06.952Z,25.68
2022-08-02T05:56:16.800Z,25.77
2022-08-02T05:58:27.546Z,25.76
2022-08-02T06:00:31.581Z,25.74
2022-08-02T06:02:45.019Z,25.77
2022-08-02T06:05:04.068Z,25.84
2022-08-02T06:07:11.995Z,25.90
2022-08-02T06:09:15.798Z,26.16
2022-08-02T06:11:21.746Z,26.18
2022-08-02T06:13:25.389Z,26.08
2022-08-02T06:15:27.431Z,26.02
2022-08-02T06:17:30.141Z,25.92
2022-08-02T06:19:48.853Z,25.84
2022-08-02T06:22:34.713Z,25.81
2022-08-02T06:24:21.677Z,25.97
2022-08-02T06:26:24.115Z,25.98
2022-08-02T06:28:26.368Z,26.20
2022-08-02T06:30:28.632Z,26.16
2022-08-02T06:32:32.259Z,26.09
2022-08-02T06:34:36.654Z,26.17
2022-08-02T06:36:47.516Z,26.19
2022-08-02T06:39:01.482Z,26.32
2022-08-02T06:41:06.547Z,26.39
2022-08-02T06:43:12.579Z,26.44
2022-08-02T06:45:16.900Z,26.76
2022-08-02T06:47:18.659Z,26.99
2022-08-02T06:49:20.449Z,27.16
2022-08-02T06:51:22.526Z,27.30
2022-08-02T06:53:24.146Z,27.41
2022-08-02T06:55:25.896Z,27.49
2022-08-02T06:57:29.511Z,27.63
2022-08-02T06:59:33.891Z,27.73
2022-08-02T07:01:38.603Z,27.76
2022-08-02T07:03:41.230Z,27.79
2022-08-02T07:05:43.138Z,27.80
2022-08-02T07:07:45.149Z,27.84
2022-08-02T07:09:56.621Z,27.98
2022-08-02T07:12:02.933Z,28.09
2022-08-02T07:14:05.960Z,28.10
2022-08-02T07:16:07.793Z,28.04
2022-08-02T07:18:09.437Z,28.20
2022-08-02T07:20:15.786Z,28.34
2022-08-02T07:22:17.493Z,28.44
2022-08-02T07:24:19.281Z,28.54
2022-08-02T07:26:20.937Z,28.60
2022-08-02T07:28:24.740Z,28.68
2022-08-02T07:30:28.187Z,28.74
2022-08-02T07:32:31.498Z,28.77
2022-08-02T07:34:33.283Z,28.76
2022-08-02T07:36:34.931Z,28.66
2022-08-02T07:38:37.502Z,28.68
2022-08-02T07:40:39.327Z,28.75
2022-08-02T07:42:41.758Z,28.76
2022-08-02T07:44:46.120Z,28.83
2022-08-02T07:46:52.004Z,28.81
2022-08-02T07:48:53.755Z,28.86
2022-08-02T07:50:55.424Z,28.80
2022-08-02T07:52:57.642Z,28.78
2022-08-02T07:54:59.725Z,28.82
2022-08-02T07:57:01.295Z,28.71
2022-08-02T07:59:03.065Z,28.74
2022-08-02T08:01:04.775Z,28.61
2022-08-02T08:03:07.843Z,28.64
2022-08-02T08:05:10.134Z,28.58
2022-08-02T08:07:11.711Z,28.63
2022-08-02T08:09:13.276Z,28.62
2022-08-02T08:11:14.933Z,28.67
2022-08-02T08:13:16.568Z,28.67
2022-08-02T08:15:18.209Z,28.75
2022-08-02T08:17:20.612Z,28.83
2022-08-02T08:19:49.967Z,28.89
2022-08-02T08:21:45.138Z,28.85
2022-08-02T08:23:46.747Z,28.88
2022-08-02T08:25:48.429Z,28.81
2022-08-02T08:27:50.570Z,28.80
2022-08-02T08:29:52.210Z,28.78
2022-08-02T08:31:53.843Z,28.72
2022-08-02T08:33:55.438Z,28.71
2022-08-02T08:35:58.453Z,28.64
2022-08-02T08:38:04.191Z,28.66
2022-08-02T08:40:10.405Z,28.72
2022-08-02T08:42:12.390Z,28.60
2022-08-02T08:44:14.325Z,28.61
2022-08-02T08:46:24.335Z,28.69
2022-08-02T08:48:31.070Z,28.76
2022-08-02T08:50:38.859Z,28.86
2022-08-02T08:52:47.724Z,28.86
2022-08-02T08:54:50.152Z,28.78
2022-08-02T08:56:54.233Z,28.75
2022-08-02T08:58:56.139Z,28.83
2022-08-02T09:00:58.563Z,28.82
2022-08-02T09:03:02.956Z,28.84
2022-08-02T09:05:05.329Z,28.79
2022-08-02T09:07:07.024Z,28.85
2022-08-02T09:09:11.069Z,28.91
2022-08-02T09:11:14.418Z,28.96
2022-08-02T09:13:31.174Z,28.97
2022-08-02T09:15:42.153Z,28.94
2022-08-02T09:17:50.543Z,28.99
2022-08-02T09:20:07.321Z,28.94
2022-08-02T09:22:11.321Z,28.97
2022-08-02T09:24:19.938Z,29.04
2022-08-02T09:26:22.993Z,29.12
2022-08-02T09:28:28.773Z,29.14
2022-08-02T09:30:30.514Z,28.98
2022-08-02T09:32:43.857Z,28.91
2022-08-02T09:34:47.653Z,28.89
2022-08-02T09:36:54.502Z,28.82
2022-08-02T09:38:58.369Z,28.76
2022-08-02T09:41:01.499Z,28.84
2022-08-02T09:43:03.233Z,29.02
2022-08-02T09:45:05.909Z,29.00
2022-08-02T09:47:14.673Z,28.98
2022-08-02T09:49:17.606Z,29.00
2022-08-02T09:51:20.964Z,29.02
2022-08-02T09:53:23.525Z,29.02
2022-08-02T09:55:26.345Z,29.09
2022-08-02T09:57:29.977Z,29.15
2022-08-02T09:59:31.782Z,29.15
2022-08-02T10:01:37.408Z,29.19
2022-08-02T10:03:54.069Z,29.28
2022-08-02T10:06:02.178Z,29.29
2022-08-02T10:08:04.823Z,29.31
2022-08-02T10:10:07.371Z,29.36
2022-08-02T10:12:09.991Z,29.44
2022-08-02T10:14:15.835Z,29.48
2022-08-02T10:16:18.410Z,29.52
2022-08-02T10:18:37.655Z,29.47
2022-08-02T10:20:44.517Z,29.48
2022-08-02T10:22:47.038Z,29.50
2022-08-02T10:24:50.119Z,29.53
2022-08-02T10:26:53.384Z,29.58
2022-08-02T10:28:55.145Z,29.55
2022-08-02T10:31:00.974Z,29.65
2022-08-02T10:33:04.193Z,29.68
2022-08-02T10:35:19.641Z,29.73
2022-08-02T10:37:29.711Z,29.77
2022-08-02T10:39:38.889Z,29.83
2022-08-02T10:41:45.568Z,29.82
2022-08-02T10:43:50.314Z,29.82
2022-08-02T10:45:52.027Z,29.82
2022-08-02T10:48:03.544Z,29.84
2022-08-02T10:50:08.627Z,29.78
2022-08-02T10:52:11.074Z,29.79
2022-08-02T10:54:17.854Z,29.79
2022-08-02T10:56:45.588Z,29.77
2022-08-02T10:58:47.215Z,29.70
2022-08-02T11:00:49.984Z,29.76
2022-08-02T11:02:53.450Z,29.83
2022-08-02T11:05:06.332Z,29.92
2022-08-02T11:07:12.701Z,29.94
2022-08-02T11:09:31.410Z,30.00
2022-08-02T11:12:00.918Z,30.05
2022-08-02T11:14:14.621Z,30.01
2022-08-02T11:16:16.307Z,30.04
2022-08-02T11:18:18.541Z,30.14
2022-08-02T11:20:21.250Z,30.20
2022-08-02T11:22:25.846Z,30.20
2022-08-02T11:24:29.213Z,30.24
2022-08-02T11:26:46.677Z,30.30
2022-08-02T11:28:49.404Z,30.38
2022-08-02T11:30:58.545Z,30.35
2022-08-02T11:33:01.089Z,30.48
2022-08-02T11:35:02.975Z,30.57
2022-08-02T11:37:04.975Z,30.52
2022-08-02T11:39:10.622Z,30.71
2022-08-02T11:41:46.806Z,30.86
2022-08-02T11:43:40.840Z,30.94
2022-08-02T11:45:42.520Z,31.08
2022-08-02T11:47:52.697Z,31.33
2022-08-02T11:50:04.872Z,31.50
2022-08-02T11:52:07.815Z,31.38
2022-08-02T11:54:09.476Z,31.09
2022-08-02T11:56:12.097Z,30.81
2022-08-02T11:58:13.733Z,30.51
2022-08-02T12:00:17.699Z,30.77
2022-08-02T12:02:20.483Z,30.91
2022-08-02T12:04:23.697Z,30.98
2022-08-02T12:06:28.170Z,31.11
2022-08-02T12:08:29.722Z,31.33
2022-08-02T12:10:32.359Z,31.44
2022-08-02T12:12:34.217Z,31.27
2022-08-02T12:14:43.281Z,31.42
2022-08-02T12:16:45.290Z,31.54
2022-08-02T12:18:49.172Z,31.45
2022-08-02T12:20:52.103Z,31.48
2022-08-02T12:22:53.818Z,31.41
2022-08-02T12:24:56.952Z,31.55
2022-08-02T12:26:58.758Z,31.43
2022-08-02T12:29:00.375Z,31.98
2022-08-02T12:31:02.325Z,32.42
2022-08-02T12:33:12.901Z,32.60
2022-08-02T12:35:26.368Z,32.97
2022-08-02T12:37:30.110Z,33.25
2022-08-02T12:39:37.791Z,33.65
2022-08-02T12:41:39.820Z,33.90
2022-08-02T12:43:57.406Z,34.23
2022-08-02T12:45:59.055Z,34.68
2022-08-02T12:48:01.437Z,35.16
2022-08-02T12:50:13.876Z,35.27
2022-08-02T12:52:19.931Z,35.50
2022-08-02T12:54:30.686Z,35.39
2022-08-02T12:56:37.884Z,35.19
2022-08-02T12:58:48.590Z,35.25
2022-08-02T13:00:53.474Z,35.59
2022-08-02T13:02:57.303Z,35.94
2022-08-02T13:04:59.596Z,35.95
2022-08-02T13:07:01.716Z,35.95
2022-08-02T13:09:12.461Z,36.05
2022-08-02T13:11:16.050Z,35.94
2022-08-02T13:13:17.656Z,35.55
2022-08-02T13:15:46.506Z,35.36
2022-08-02T13:17:42.777Z,35.62
2022-08-02T13:19:44.397Z,35.91
2022-08-02T13:22:02.382Z,35.70
2022-08-02T13:24:06.101Z,35.69
2022-08-02T13:26:31.321Z,36.01
2022-08-02T13:28:33.230Z,36.09
2022-08-02T13:30:34.993Z,36.51
2022-08-02T13:32:36.724Z,36.40
2022-08-02T13:34:38.356Z,36.13
2022-08-02T13:36:39.989Z,36.73
2022-08-02T13:38:41.812Z,37.05
2022-08-02T13:41:03.164Z,37.33
2022-08-02T13:43:06.465Z,37.47
2022-08-02T13:45:12.983Z,37.79
2022-08-02T13:47:15.727Z,37.50
2022-08-02T13:49:50.566Z,37.54
2022-08-02T13:51:53.643Z,37.07
2022-08-02T13:53:55.286Z,37.12
2022-08-02T13:55:56.988Z,37.47
2022-08-02T13:57:58.893Z,37.74
2022-08-02T14:00:02.184Z,38.08
2022-08-02T14:02:07.016Z,38.12
2022-08-02T14:04:09.622Z,38.14
2022-08-02T14:06:11.293Z,38.11
2022-08-02T14:08:16.376Z,37.63
2022-08-02T14:10:18.850Z,37.37
2022-08-02T14:12:20.600Z,36.80
2022-08-02T14:14:22.204Z,37.04
2022-08-02T14:16:33.009Z,37.21
2022-08-02T14:18:34.975Z,36.59
2022-08-02T14:20:36.582Z,36.48
2022-08-02T14:22:38.227Z,36.36
2022-08-02T14:24:40.555Z,36.27
2022-08-02T14:26:42.220Z,36.24
2022-08-02T14:28:44.003Z,36.18
2022-08-02T14:30:45.642Z,36.05
2022-08-02T14:32:48.605Z,35.93
2022-08-02T14:34:50.337Z,35.84
2022-08-02T14:36:54.124Z,35.90
2022-08-02T14:38:56.705Z,35.92
2022-08-02T14:40:58.406Z,35.57
2022-08-02T14:43:00.853Z,35.55
2022-08-02T14:45:02.615Z,35.31
2022-08-02T14:47:04.446Z,35.29
2022-08-02T14:49:09.461Z,35.23
2022-08-02T14:51:14.044Z,35.11
2022-08-02T14:53:15.689Z,34.98
2022-08-02T14:55:17.681Z,34.86
2022-08-02T14:57:19.457Z,34.69
2022-08-02T14:59:21.798Z,34.56
2022-08-02T15:01:25.970Z,34.42
2022-08-02T15:03:29.620Z,34.35
2022-08-02T15:05:32.867Z,34.16
2022-08-02T15:07:38.272Z,33.88
2022-08-02T15:09:43.638Z,33.83
2022-08-02T15:11:47.920Z,33.74
2022-08-02T15:13:50.467Z,33.62
2022-08-02T15:15:55.390Z,33.50
2022-08-02T15:17:57.060Z,33.55
2022-08-02T15:20:02.986Z,33.54
2022-08-02T15:22:10.626Z,33.59
2022-08-02T15:24:18.072Z,33.61
2022-08-02T15:26:19.672Z,33.62
2022-08-02T15:28:21.309Z,33.66
2022-08-02T15:30:22.928Z,33.61
2022-08-02T15:32:24.521Z,33.54
2022-08-02T15:34:26.123Z,33.50
2022-08-02T15:36:27.836Z,33.50
2022-08-02T15:38:30.895Z,33.50
2022-08-02T15:40:32.784Z,33.45
2022-08-02T15:42:34.464Z,33.40
2022-08-02T15:44:36.053Z,33.42
2022-08-02T15:46:39.597Z,33.42
2022-08-02T15:48:41.314Z,33.38
2022-08-02T15:50:42.963Z,33.43
2022-08-02T15:52:44.559Z,33.41
2022-08-02T15:54:47.619Z,33.40
2022-08-02T15:56:49.663Z,33.41
2022-08-02T15:58:51.688Z,33.33
2022-08-02T16:00:55.725Z,33.22
2022-08-02T16:02:57.336Z,33.21
2022-08-02T16:04:58.955Z,33.13
2022-08-02T16:07:01.629Z,33.17
2022-08-02T16:09:04.075Z,33.16
2022-08-02T16:11:07.046Z,33.10
2022-08-02T16:13:08.686Z,32.94
2022-08-02T16:15:10.662Z,32.84
2022-08-02T16:17:12.325Z,32.77
2022-08-02T16:19:46.317Z,32.51
2022-08-02T16:21:35.693Z,32.38
2022-08-02T16:24:01.058Z,32.42
2022-08-02T16:25:59.099Z,32.36
2022-08-02T16:28:07.177Z,32.43
2022-08-02T16:30:11.363Z,32.45
2022-08-02T16:32:13.206Z,32.36
2022-08-02T16:34:15.451Z,32.41
2022-08-02T16:36:19.598Z,32.14
2022-08-02T16:38:21.959Z,32.12
2022-08-02T16:40:23.754Z,32.04
2022-08-02T16:42:25.898Z,32.00
2022-08-02T16:44:30.109Z,31.81
2022-08-02T16:46:31.993Z,31.99
2022-08-02T16:48:33.647Z,32.06
2022-08-02T16:50:36.649Z,32.05
2022-08-02T16:52:38.801Z,32.03
2022-08-02T16:54:41.013Z,31.94
2022-08-02T16:56:42.660Z,31.81
2022-08-02T16:58:44.882Z,31.85
2022-08-02T17:00:48.248Z,31.78
2022-08-02T17:02:50.934Z,31.66
2022-08-02T17:04:53.170Z,31.75
2022-08-02T17:06:54.797Z,31.76
2022-08-02T17:08:59.598Z,31.59
2022-08-02T17:11:03.194Z,31.57
2022-08-02T17:13:11.218Z,31.58
2022-08-02T17:16:01.290Z,31.62
2022-08-02T17:17:40.592Z,31.55
2022-08-02T17:19:44.774Z,31.69
2022-08-02T17:21:49.775Z,31.81
2022-08-02T17:24:07.827Z,31.89
2022-08-02T17:26:10.143Z,31.94
2022-08-02T17:28:14.911Z,31.99
2022-08-02T17:30:17.132Z,31.98
2022-08-02T17:32:29.237Z,31.99
2022-08-02T17:34:32.690Z,32.07
2022-08-02T17:36:35.055Z,31.85
2022-08-02T17:38:36.729Z,31.63
2022-08-02T17:40:52.065Z,31.61
2022-08-02T17:42:53.726Z,31.63
2022-08-02T17:45:00.856Z,31.66
2022-08-02T17:47:08.718Z,31.53
2022-08-02T17:49:13.748Z,31.58
2022-08-02T17:51:33.150Z,31.69
2022-08-02T17:53:38.506Z,31.67
2022-08-02T17:55:42.572Z,31.61
2022-08-02T17:57:57.439Z,31.63
2022-08-02T18:00:04.188Z,31.65
2022-08-02T18:02:06.100Z,31.65
2022-08-02T18:04:09.788Z,31.70
2022-08-02T18:06:11.446Z,31.73
2022-08-02T18:08:14.362Z,31.75
2022-08-02T18:10:17.007Z,31.78
2022-08-02T18:12:19.057Z,31.81
2022-08-02T18:14:24.438Z,31.80
2022-08-02T18:16:28.154Z,31.81
2022-08-02T18:18:30.734Z,31.84
2022-08-02T18:20:32.526Z,31.85
2022-08-02T18:22:34.089Z,31.87
2022-08-02T18:24:37.161Z,31.87
2022-08-02T18:26:39.826Z,31.86
2022-08-02T18:28:45.427Z,31.83
2022-08-02T18:30:48.060Z,31.84
2022-08-02T18:33:59.891Z,31.84
2022-08-02T18:35:11.695Z,31.85
2022-08-02T18:37:14.115Z,31.85
2022-08-02T18:39:19.320Z,31.84
2022-08-02T18:41:22.200Z,31.83
2022-08-02T18:43:29.604Z,31.80
2022-08-02T18:46:01.628Z,31.79
2022-08-02T18:47:53.237Z,31.78
2022-08-02T18:49:56.291Z,31.79
2022-08-02T18:51:58.053Z,31.75
2022-08-02T18:54:00.977Z,31.76
2022-08-02T18:56:04.222Z,31.74
2022-08-02T18:58:18.761Z,31.70
2022-08-02T19:00:25.817Z,31.67
2022-08-02T19:02:28.254Z,31.64
2022-08-02T19:04:32.916Z,31.61
2022-08-02T19:06:34.672Z,31.57
2022-08-02T19:08:36.276Z,31.50
2022-08-02T19:10:38.455Z,31.48
2022-08-02T19:12:51.703Z,31.47
2022-08-02T19:14:55.182Z,31.42
2022-08-02T19:16:59.169Z,31.36
2022-08-02T19:19:00.752Z,31.34
2022-08-02T19:21:07.341Z,31.32
2022-08-02T19:23:10.461Z,31.29
2022-08-02T19:25:16.938Z,31.23
2022-08-02T19:27:25.889Z,31.18
2022-08-02T19:29:42.965Z,31.16
2022-08-02T19:32:00.202Z,31.17
2022-08-02T19:34:07.081Z,31.10
2022-08-02T19:36:09.716Z,31.04
2022-08-02T19:38:13.322Z,30.98
2022-08-02T19:40:15.686Z,30.96
2022-08-02T19:42:18.513Z,30.92
2022-08-02T19:44:28.888Z,30.86
2022-08-02T19:46:31.217Z,30.79
2022-08-02T19:48:34.231Z,30.69
2022-08-02T19:50:35.814Z,30.69
2022-08-02T19:52:37.462Z,30.67
2022-08-02T19:54:54.147Z,30.61
2022-08-02T19:56:58.470Z,30.57
2022-08-02T19:59:00.815Z,30.59
2022-08-02T20:01:16.754Z,30.58
2022-08-02T20:03:19.587Z,30.56
2022-08-02T20:05:42.882Z,30.51
2022-08-02T20:07:56.513Z,30.50
2022-08-02T20:09:58.990Z,30.50
2022-08-02T20:12:02.064Z,30.50
2022-08-02T20:14:04.249Z,30.45
2022-08-02T20:16:06.358Z,30.40
2022-08-02T20:18:09.005Z,30.35
2022-08-02T20:20:12.083Z,30.29
2022-08-02T20:22:16.475Z,30.26
2022-08-02T20:24:18.312Z,30.23
2022-08-02T20:26:19.952Z,30.18
2022-08-02T20:28:23.588Z,30.11
2022-08-02T20:30:25.539Z,30.10
2022-08-02T20:32:27.243Z,30.08
2022-08-02T20:34:30.087Z,29.94
2022-08-02T20:36:31.695Z,29.92
2022-08-02T20:38:34.816Z,29.91
2022-08-02T20:40:36.477Z,29.91
2022-08-02T20:42:38.285Z,29.90
2022-08-02T20:44:40.711Z,29.86
2022-08-02T20:46:43.100Z,29.81
2022-08-02T20:48:44.999Z,29.77
2022-08-02T20:50:49.384Z,29.76
2022-08-02T20:52:52.347Z,29.67
2022-08-02T20:54:55.360Z,29.65
2022-08-02T20:56:56.981Z,29.62
2022-08-02T20:59:03.773Z,29.55
2022-08-02T21:01:13.356Z,29.51
2022-08-02T21:03:16.544Z,29.47
2022-08-02T21:05:26.803Z,29.42
2022-08-02T21:07:43.024Z,29.39
2022-08-02T21:09:53.560Z,29.37
2022-08-02T21:11:57.333Z,29.34
2022-08-02T21:14:07.973Z,29.28
2022-08-02T21:16:13.676Z,29.18
2022-08-02T21:18:26.575Z,29.15
2022-08-02T21:20:37.817Z,29.12
2022-08-02T21:22:39.525Z,29.11
2022-08-02T21:24:41.086Z,29.06
2022-08-02T21:26:42.744Z,28.98
2022-08-02T21:28:51.752Z,28.96
2022-08-02T21:30:53.419Z,28.96
2022-08-02T21:32:55.007Z,28.97
2022-08-02T21:34:58.752Z,28.92
2022-08-02T21:37:00.339Z,28.94
2022-08-02T21:39:11.663Z,28.93
2022-08-02T21:41:13.492Z,28.92
2022-08-02T21:43:15.091Z,28.89
2022-08-02T21:45:20.062Z,28.84
2022-08-02T21:47:21.868Z,28.80
2022-08-02T21:49:41.174Z,28.82
2022-08-02T21:51:49.528Z,28.77
2022-08-02T21:54:18.171Z,28.67
2022-08-02T21:56:13.611Z,28.68
2022-08-02T21:58:15.259Z,28.67
2022-08-02T22:00:28.921Z,28.68
2022-08-02T22:02:31.244Z,28.68
2022-08-02T22:04:32.983Z,28.67
2022-08-02T22:06:35.036Z,28.66
2022-08-02T22:08:38.074Z,28.67
2022-08-02T22:10:39.738Z,28.64
2022-08-02T22:12:45.406Z,28.65
2022-08-02T22:14:49.570Z,28.63
2022-08-02T22:16:56.673Z,28.62
2022-08-02T22:18:59.706Z,28.61
2022-08-02T22:21:01.472Z,28.61
2022-08-02T22:23:04.089Z,28.56
2022-08-02T22:25:26.783Z,28.53
2022-08-02T22:28:38.784Z,28.52
2022-08-02T22:29:57.455Z,28.49
2022-08-02T22:32:01.289Z,28.45
2022-08-02T22:34:03.895Z,28.45
2022-08-02T22:36:05.941Z,28.44
2022-08-02T22:40:34.802Z,28.42
2022-08-02T22:42:36.629Z,28.40
2022-08-02T22:44:44.109Z,28.36
2022-08-02T22:46:46.292Z,28.33
2022-08-02T22:48:49.337Z,28.30
2022-08-02T22:50:50.903Z,28.29
2022-08-02T22:52:52.574Z,28.28
2022-08-02T22:54:54.770Z,28.25
2022-08-02T22:56:56.524Z,28.22
2022-08-02T22:59:09.599Z,28.41
2022-08-02T23:01:17.595Z,28.13
2022-08-02T23:03:19.193Z,28.10
2022-08-02T23:05:22.137Z,28.10
2022-08-02T23:07:23.776Z,28.09
2022-08-02T23:09:25.380Z,28.08
2022-08-02T23:11:26.950Z,28.02
2022-08-02T23:13:28.568Z,27.96
2022-08-02T23:15:30.189Z,27.92
2022-08-02T23:17:35.830Z,27.86
2022-08-02T23:19:37.428Z,27.83
2022-08-02T23:22:02.119Z,27.80
2022-08-02T23:24:02.033Z,27.73
2022-08-02T23:26:04.115Z,27.74
2022-08-02T23:28:05.671Z,27.70
2022-08-02T23:30:08.198Z,27.67
2022-08-02T23:32:09.868Z,27.63
2022-08-02T23:34:11.506Z,27.58
2022-08-02T23:36:13.089Z,27.55
2022-08-02T23:38:16.073Z,27.54
2022-08-02T23:40:31.416Z,27.46
2022-08-02T23:42:39.322Z,27.41
2022-08-02T23:44:41.059Z,27.45
2022-08-02T23:46:42.776Z,27.40
2022-08-02T23:48:44.292Z,27.37
2022-08-02T23:50:45.875Z,27.38
2022-08-02T23:52:47.486Z,27.35
2022-08-02T23:54:50.464Z,27.39
2022-08-02T23:56:52.646Z,27.39
2022-08-02T23:58:57.248Z,27.37
